Cachoeira Dourada, Brazil
Current Conditions -  °F | °C
As of 5:00 PM on Tuesday 21 Oct 2014 (Local Time) from SBUL Reporting Station
Scattered Clouds Scattered Clouds  
Wind Chill: 86°   Ceiling: Unl
Heat Index: 86°   Visibility: 6mi
Dew Point: 52°   Wind: 8mph
Humidity: 31%   Direction: 30°NNE
Pressure: 29.97"   Gusts: NA
Location:  18.49°S, 49.47°W
Report Text: SBUL 211900Z 03007KT 9999 FEW045 FEW049TCU SCT080 30/11 Q1015
Loading
Personal Weather Stations






























Interactive Weather Map
Tropical Storm Tracking
New forecast layout! Learn more

10-Day Weather Forecast

Advertisements
Track Severe Weather on mobile